createdAt,value
2023-03-26T00:01:51.860Z,74.70
2023-03-26T00:04:19.835Z,74.60
2023-03-26T00:06:49.239Z,74.40
2023-03-26T00:09:17.573Z,74.90
2023-03-26T00:11:46.808Z,75.50
2023-03-26T00:14:17.747Z,75.70
2023-03-26T00:16:47.778Z,76.10
2023-03-26T00:19:15.831Z,76.50
2023-03-26T00:21:43.234Z,76.10
2023-03-26T00:24:17.617Z,76.40
2023-03-26T00:26:48.779Z,76.30
2023-03-26T00:29:17.134Z,76.30
2023-03-26T00:31:46.602Z,75.40
2023-03-26T00:34:15.974Z,73.80
2023-03-26T00:36:44.150Z,72.90
2023-03-26T00:39:11.449Z,72.80
2023-03-26T00:41:43.278Z,72.90
2023-03-26T00:44:11.699Z,73.10
2023-03-26T00:46:39.110Z,73.30
2023-03-26T00:49:11.170Z,73.60
2023-03-26T00:51:39.622Z,74.00
2023-03-26T00:54:08.367Z,74.40
2023-03-26T00:56:36.406Z,74.80
2023-03-26T00:59:03.921Z,75.40
2023-03-26T01:01:32.662Z,75.90
2023-03-26T01:04:27.856Z,76.30
2023-03-26T01:07:00.853Z,76.90
2023-03-26T01:09:38.335Z,77.00
2023-03-26T01:12:09.084Z,77.10
2023-03-26T01:14:38.237Z,77.00
2023-03-26T01:17:07.367Z,76.40
2023-03-26T01:19:53.297Z,77.00
2023-03-26T01:22:26.325Z,77.10
2023-03-26T01:24:56.771Z,76.70
2023-03-26T01:27:57.495Z,77.10
2023-03-26T01:30:43.371Z,75.60
2023-03-26T01:33:34.070Z,73.80
2023-03-26T01:36:11.314Z,74.10
2023-03-26T01:38:52.160Z,75.40
2023-03-26T01:41:37.658Z,74.60
2023-03-26T01:44:32.160Z,74.40
2023-03-26T01:47:01.269Z,73.10
2023-03-26T01:49:30.061Z,73.50
2023-03-26T01:51:58.394Z,73.60
2023-03-26T01:54:30.453Z,73.70
2023-03-26T01:57:06.142Z,73.60
2023-03-26T02:00:12.371Z,72.90
2023-03-26T02:02:43.038Z,72.00
2023-03-26T02:05:39.450Z,71.90
2023-03-26T02:08:22.846Z,71.90
2023-03-26T02:10:56.653Z,71.20
2023-03-26T02:13:24.964Z,68.70
2023-03-26T02:16:03.986Z,70.00
2023-03-26T02:18:40.383Z,70.40
2023-03-26T02:21:20.608Z,69.90
2023-03-26T02:23:51.012Z,68.90
2023-03-26T02:26:20.687Z,67.90
2023-03-26T02:29:05.329Z,67.40
2023-03-26T02:31:34.065Z,67.30
2023-03-26T02:34:01.735Z,67.80
2023-03-26T02:36:31.933Z,68.40
2023-03-26T02:39:02.646Z,68.30
2023-03-26T02:41:33.823Z,68.60
2023-03-26T02:44:05.949Z,68.70
2023-03-26T02:46:51.885Z,69.40
2023-03-26T02:49:42.863Z,70.10
2023-03-26T02:52:17.249Z,70.10
2023-03-26T02:54:45.543Z,70.30
2023-03-26T02:57:24.657Z,70.60
2023-03-26T03:00:14.289Z,70.30
2023-03-26T03:02:50.883Z,70.80
2023-03-26T03:05:47.376Z,69.90
2023-03-26T03:08:23.797Z,69.20
2023-03-26T03:11:12.708Z,68.60
2023-03-26T03:13:48.475Z,67.60
2023-03-26T03:16:30.287Z,66.70
2023-03-26T03:19:02.091Z,66.00
2023-03-26T03:21:40.793Z,66.20
2023-03-26T03:24:10.251Z,67.40
2023-03-26T03:26:45.844Z,66.90
2023-03-26T03:29:26.142Z,67.20
2023-03-26T03:31:54.164Z,68.10
2023-03-26T03:34:43.024Z,68.10
2023-03-26T03:37:10.490Z,68.20
2023-03-26T03:39:50.452Z,68.40
2023-03-26T03:42:21.613Z,68.80
2023-03-26T03:44:51.620Z,68.60
2023-03-26T03:47:48.666Z,67.40
2023-03-26T03:50:21.513Z,67.00
2023-03-26T03:53:05.842Z,66.60
2023-03-26T03:55:38.388Z,66.10
2023-03-26T03:58:06.262Z,66.00
2023-03-26T04:00:33.762Z,65.90
2023-03-26T04:03:33.275Z,65.00
2023-03-26T04:06:11.229Z,65.20
2023-03-26T04:08:39.537Z,65.80
2023-03-26T04:11:07.970Z,66.00
2023-03-26T04:14:11.058Z,65.80
2023-03-26T04:16:59.421Z,66.60
2023-03-26T04:19:29.435Z,67.10
2023-03-26T04:22:02.414Z,67.40
2023-03-26T04:24:34.313Z,65.40
2023-03-26T04:27:32.318Z,64.20
2023-03-26T04:30:17.457Z,63.40
2023-03-26T04:32:46.950Z,61.90
2023-03-26T04:35:16.904Z,62.40
2023-03-26T04:37:49.004Z,63.80
2023-03-26T04:40:30.730Z,65.70
2023-03-26T04:43:18.255Z,64.60
2023-03-26T04:46:04.740Z,63.90
2023-03-26T04:48:41.692Z,66.00
2023-03-26T04:51:18.032Z,66.20
2023-03-26T04:53:53.230Z,65.80
2023-03-26T04:56:53.278Z,65.80
2023-03-26T04:59:41.560Z,66.10
2023-03-26T05:02:13.263Z,67.50
2023-03-26T05:04:50.168Z,67.20
2023-03-26T05:07:22.628Z,67.40
2023-03-26T05:09:54.253Z,67.60
2023-03-26T05:12:46.700Z,66.10
2023-03-26T05:15:19.037Z,66.30
2023-03-26T05:18:00.460Z,66.20
2023-03-26T05:20:32.656Z,65.60
2023-03-26T05:23:00.174Z,65.60
2023-03-26T05:25:35.022Z,65.50
2023-03-26T05:28:04.702Z,65.10
2023-03-26T05:30:53.572Z,65.00
2023-03-26T05:33:22.991Z,65.20
2023-03-26T05:36:13.517Z,64.70
2023-03-26T05:38:49.669Z,63.30
2023-03-26T05:41:46.105Z,64.00
2023-03-26T05:44:13.494Z,63.80
2023-03-26T05:46:41.048Z,63.00
2023-03-26T05:49:10.481Z,62.00
2023-03-26T05:51:37.885Z,61.50
2023-03-26T05:54:25.436Z,61.00
2023-03-26T05:57:11.262Z,59.80
2023-03-26T06:00:15.323Z,59.10
2023-03-26T06:02:47.099Z,58.90
2023-03-26T06:05:37.629Z,58.70
2023-03-26T06:08:10.974Z,59.10
2023-03-26T06:10:40.101Z,59.50
2023-03-26T06:13:07.815Z,59.20
2023-03-26T06:15:39.728Z,58.00
2023-03-26T06:18:29.671Z,57.70
2023-03-26T06:21:20.435Z,57.10
2023-03-26T06:23:55.529Z,56.80
2023-03-26T06:26:37.980Z,56.10
2023-03-26T06:29:23.716Z,55.60
2023-03-26T06:32:20.185Z,55.40
2023-03-26T06:34:59.668Z,55.00
2023-03-26T06:37:27.086Z,54.80
2023-03-26T06:39:58.806Z,55.10
2023-03-26T06:43:08.050Z,54.80
2023-03-26T06:45:51.392Z,54.70
2023-03-26T06:48:42.456Z,54.30
2023-03-26T06:51:28.334Z,53.60
2023-03-26T06:54:14.620Z,53.90
2023-03-26T06:56:54.391Z,53.90
2023-03-26T06:59:40.330Z,53.30
2023-03-26T07:02:26.704Z,52.90
2023-03-26T07:05:14.045Z,52.20
2023-03-26T07:08:19.956Z,53.50
2023-03-26T07:11:06.260Z,55.20
2023-03-26T07:13:53.253Z,56.30
2023-03-26T07:16:39.167Z,57.00
2023-03-26T07:19:33.380Z,55.80
2023-03-26T07:22:01.353Z,56.50
2023-03-26T07:24:51.873Z,57.10
2023-03-26T07:28:30.306Z,54.30
2023-03-26T07:31:11.072Z,52.70
2023-03-26T07:33:56.037Z,52.30
2023-03-26T07:37:01.414Z,50.90
2023-03-26T07:39:54.542Z,51.20
2023-03-26T07:42:44.989Z,52.40
2023-03-26T07:45:42.385Z,53.60
2023-03-26T07:48:43.792Z,54.30
2023-03-26T07:51:19.912Z,54.00
2023-03-26T07:53:54.885Z,53.40
2023-03-26T07:57:02.144Z,53.40
2023-03-26T08:00:12.450Z,52.80
2023-03-26T08:03:12.168Z,52.00
2023-03-26T08:06:26.525Z,49.10
2023-03-26T08:09:13.905Z,47.60
2023-03-26T08:12:23.196Z,48.20
2023-03-26T08:14:50.625Z,47.10
2023-03-26T08:17:51.725Z,47.10
2023-03-26T08:20:32.663Z,45.90
2023-03-26T08:23:16.498Z,44.30
2023-03-26T08:25:59.518Z,44.70
2023-03-26T08:28:48.972Z,44.70
2023-03-26T08:31:18.194Z,42.90
2023-03-26T08:33:46.113Z,41.30
2023-03-26T08:36:13.477Z,40.10
2023-03-26T08:38:40.837Z,40.00
2023-03-26T08:41:11.524Z,40.70
2023-03-26T08:44:02.620Z,41.40
2023-03-26T08:46:53.444Z,40.90
2023-03-26T08:49:42.168Z,40.70
2023-03-26T08:52:58.139Z,40.10
2023-03-26T08:55:41.654Z,40.30
2023-03-26T08:58:42.733Z,39.40
2023-03-26T09:01:47.752Z,39.00
2023-03-26T09:05:09.288Z,38.90
2023-03-26T09:07:57.769Z,38.90
2023-03-26T09:10:43.789Z,38.70
2023-03-26T09:13:49.399Z,38.40
2023-03-26T09:16:44.076Z,38.70
2023-03-26T09:19:20.965Z,38.80
2023-03-26T09:22:12.522Z,38.40
2023-03-26T09:25:15.663Z,37.90
2023-03-26T09:27:59.214Z,37.60
2023-03-26T09:30:53.070Z,37.80
2023-03-26T09:34:17.965Z,37.00
2023-03-26T09:37:06.132Z,37.70
2023-03-26T09:39:59.469Z,37.90
2023-03-26T09:42:49.637Z,38.30
2023-03-26T09:45:32.737Z,37.90
2023-03-26T09:48:06.065Z,40.20
2023-03-26T09:51:02.914Z,39.20
2023-03-26T09:54:04.721Z,38.90
2023-03-26T09:56:53.534Z,38.70
2023-03-26T09:59:35.207Z,40.10
2023-03-26T10:02:46.745Z,40.00
2023-03-26T10:05:44.034Z,39.70
2023-03-26T10:08:22.113Z,37.90
2023-03-26T10:10:58.496Z,37.90
2023-03-26T10:13:35.113Z,38.20
2023-03-26T10:16:08.261Z,37.90
2023-03-26T10:18:41.811Z,38.60
2023-03-26T10:21:30.929Z,39.00
2023-03-26T10:24:09.380Z,38.60
2023-03-26T10:27:09.827Z,37.90
2023-03-26T10:29:41.472Z,38.00
2023-03-26T10:32:40.695Z,37.90
2023-03-26T10:35:18.577Z,37.60
2023-03-26T10:38:08.990Z,38.20
2023-03-26T10:40:52.481Z,38.30
2023-03-26T10:44:07.324Z,37.80
2023-03-26T10:47:03.806Z,38.40
2023-03-26T10:49:57.559Z,38.20
2023-03-26T10:52:34.818Z,37.70
2023-03-26T10:55:18.785Z,38.20
2023-03-26T10:58:10.649Z,38.80
2023-03-26T11:00:47.903Z,39.00
2023-03-26T11:03:26.716Z,39.60
2023-03-26T11:06:26.332Z,39.30
2023-03-26T11:09:12.563Z,38.80
2023-03-26T11:12:33.574Z,37.70
2023-03-26T11:15:24.456Z,36.80
2023-03-26T11:18:06.977Z,36.40
2023-03-26T11:20:42.161Z,37.00
2023-03-26T11:23:25.349Z,35.90
2023-03-26T11:26:16.708Z,36.10
2023-03-26T11:32:00.899Z,36.10
2023-03-26T11:34:35.284Z,36.50
2023-03-26T11:37:08.647Z,36.50
2023-03-26T11:39:56.575Z,35.80
2023-03-26T11:42:25.218Z,35.60
2023-03-26T11:45:02.322Z,35.70
2023-03-26T11:48:17.265Z,36.90
2023-03-26T11:50:55.844Z,37.30
2023-03-26T11:53:29.388Z,37.50
2023-03-26T11:56:08.476Z,38.00
2023-03-26T11:59:01.310Z,39.20
2023-03-26T12:01:52.140Z,38.50
2023-03-26T12:04:35.294Z,38.30
2023-03-26T12:07:19.923Z,37.70
2023-03-26T12:09:57.422Z,37.60
2023-03-26T12:12:48.908Z,38.20
2023-03-26T12:15:29.843Z,37.80
2023-03-26T12:17:58.991Z,38.50
2023-03-26T12:20:26.500Z,39.00
2023-03-26T12:23:04.410Z,39.10
2023-03-26T12:25:36.999Z,38.90
2023-03-26T12:28:17.578Z,40.30
2023-03-26T12:31:05.240Z,40.10
2023-03-26T12:33:35.322Z,40.50
2023-03-26T12:36:21.110Z,40.50
2023-03-26T12:39:42.856Z,40.90
2023-03-26T12:43:51.321Z,39.80
2023-03-26T12:44:55.339Z,39.60
2023-03-26T12:47:57.561Z,38.10
2023-03-26T12:50:33.977Z,39.30
2023-03-26T12:53:23.078Z,40.20
2023-03-26T12:55:56.970Z,39.00
2023-03-26T12:58:58.600Z,37.60
2023-03-26T13:01:40.656Z,37.70
2023-03-26T13:04:34.420Z,37.60
2023-03-26T13:07:34.878Z,37.30
2023-03-26T13:10:26.628Z,37.80
2023-03-26T13:13:15.509Z,37.00
2023-03-26T13:16:05.065Z,38.00
2023-03-26T13:18:54.643Z,37.80
2023-03-26T13:21:37.722Z,37.60
2023-03-26T13:24:56.942Z,39.60
2023-03-26T13:27:45.096Z,37.20
2023-03-26T13:30:37.788Z,34.80
2023-03-26T13:33:33.899Z,36.20
2023-03-26T13:36:21.628Z,34.50
2023-03-26T13:39:09.723Z,35.90
2023-03-26T13:41:56.303Z,37.30
2023-03-26T13:44:48.937Z,37.50
2023-03-26T13:47:21.335Z,37.10
2023-03-26T13:50:19.953Z,37.40
2023-03-26T13:53:00.097Z,37.40
2023-03-26T13:55:37.670Z,37.80
2023-03-26T13:58:15.262Z,38.90
2023-03-26T14:00:58.031Z,39.90
2023-03-26T14:03:43.098Z,40.70
2023-03-26T14:06:35.735Z,41.10
2023-03-26T14:09:10.530Z,42.10
2023-03-26T14:11:53.152Z,42.00
2023-03-26T14:14:34.270Z,43.40
2023-03-26T14:17:14.866Z,43.20
2023-03-26T14:19:57.435Z,43.50
2023-03-26T14:23:03.733Z,43.10
2023-03-26T14:25:55.804Z,42.60
2023-03-26T14:29:01.036Z,44.00
2023-03-26T14:31:37.777Z,44.90
2023-03-26T14:34:26.674Z,44.70
2023-03-26T14:36:59.644Z,44.70
2023-03-26T14:39:48.477Z,44.70
2023-03-26T14:42:19.429Z,44.60
2023-03-26T14:44:52.610Z,45.30
2023-03-26T14:47:22.406Z,46.70
2023-03-26T14:50:21.763Z,47.00
2023-03-26T14:52:51.076Z,47.30
2023-03-26T14:55:48.818Z,48.60
2023-03-26T14:58:24.964Z,49.30
2023-03-26T15:01:21.987Z,49.90
2023-03-26T15:04:40.695Z,49.10
2023-03-26T15:07:32.618Z,50.60
2023-03-26T15:10:22.856Z,51.70
2023-03-26T15:13:14.309Z,51.30
2023-03-26T15:16:09.894Z,51.40
2023-03-26T15:19:01.764Z,50.30
2023-03-26T15:21:47.590Z,50.00
2023-03-26T15:24:56.542Z,51.10
2023-03-26T15:27:34.489Z,51.60
2023-03-26T15:30:02.001Z,50.20
2023-03-26T15:32:57.325Z,49.90
2023-03-26T15:35:46.289Z,49.50
2023-03-26T15:38:35.777Z,51.00
2023-03-26T15:41:24.107Z,51.40
2023-03-26T15:44:23.690Z,51.50
2023-03-26T15:46:59.216Z,50.80
2023-03-26T15:49:59.372Z,52.30
2023-03-26T15:52:36.711Z,50.10
2023-03-26T15:55:26.524Z,50.10
2023-03-26T15:58:05.805Z,50.90
2023-03-26T16:00:47.947Z,50.80
2023-03-26T16:03:41.393Z,50.50
2023-03-26T16:06:28.405Z,50.20
2023-03-26T16:09:08.179Z,48.10
2023-03-26T16:11:58.997Z,48.60
2023-03-26T16:14:36.147Z,49.50
2023-03-26T16:17:13.190Z,49.80
2023-03-26T16:19:49.787Z,49.70
2023-03-26T16:22:42.815Z,49.80
2023-03-26T16:25:26.936Z,49.70
2023-03-26T16:28:13.859Z,48.60
2023-03-26T16:30:42.386Z,49.20
2023-03-26T16:33:21.409Z,49.00
2023-03-26T16:36:02.550Z,48.90
2023-03-26T16:39:03.963Z,49.40
2023-03-26T16:41:50.402Z,50.30
2023-03-26T16:44:39.247Z,51.60
2023-03-26T16:47:48.358Z,52.30
2023-03-26T16:50:30.147Z,51.80
2023-03-26T16:53:01.330Z,50.50
2023-03-26T16:55:49.814Z,50.10
2023-03-26T16:58:31.372Z,50.80
2023-03-26T17:01:27.511Z,51.90
2023-03-26T17:04:23.475Z,52.70
2023-03-26T17:07:10.438Z,53.70
2023-03-26T17:09:59.233Z,53.70
2023-03-26T17:12:48.868Z,53.00
2023-03-26T17:15:21.991Z,52.30
2023-03-26T17:18:07.393Z,52.10
2023-03-26T17:20:44.080Z,51.70
2023-03-26T17:23:23.271Z,52.40
2023-03-26T17:26:22.603Z,53.50
2023-03-26T17:29:30.042Z,53.60
2023-03-26T17:32:11.620Z,53.20
2023-03-26T17:34:38.977Z,52.90
2023-03-26T17:37:25.980Z,52.60
2023-03-26T17:39:53.519Z,51.10
2023-03-26T17:42:33.111Z,51.30
2023-03-26T17:45:17.832Z,51.40
2023-03-26T17:47:59.063Z,51.70
2023-03-26T17:50:42.210Z,51.90
2023-03-26T17:53:29.078Z,51.90
2023-03-26T17:55:58.526Z,52.10
2023-03-26T17:58:28.881Z,52.30
2023-03-26T18:01:05.598Z,52.30
2023-03-26T18:03:39.422Z,52.50
2023-03-26T18:06:14.456Z,52.60
2023-03-26T18:08:47.286Z,52.70
2023-03-26T18:11:45.937Z,52.90
2023-03-26T18:14:19.702Z,53.00
2023-03-26T18:16:57.825Z,52.80
2023-03-26T18:19:26.055Z,52.70
2023-03-26T18:22:04.134Z,52.70
2023-03-26T18:24:36.929Z,52.80
2023-03-26T18:27:12.198Z,52.90
2023-03-26T18:29:45.536Z,53.00
2023-03-26T18:32:13.173Z,53.30
2023-03-26T18:34:50.227Z,53.40
2023-03-26T18:37:35.630Z,53.10
2023-03-26T18:40:18.441Z,52.90
2023-03-26T18:42:52.545Z,52.90
2023-03-26T18:45:37.617Z,53.10
2023-03-26T18:48:28.545Z,53.20
2023-03-26T18:51:05.928Z,53.20
2023-03-26T18:53:43.917Z,53.10
2023-03-26T18:56:40.063Z,53.10
2023-03-26T18:59:34.477Z,53.00
2023-03-26T19:02:11.933Z,53.00
2023-03-26T19:04:41.819Z,53.20
2023-03-26T19:07:24.114Z,53.50
2023-03-26T19:09:56.403Z,53.70
2023-03-26T19:12:33.106Z,54.00
2023-03-26T19:15:16.717Z,54.20
2023-03-26T19:17:49.804Z,54.40
2023-03-26T19:20:24.854Z,54.20
2023-03-26T19:22:57.068Z,54.00
2023-03-26T19:25:36.381Z,53.80
2023-03-26T19:28:05.453Z,53.30
2023-03-26T19:30:34.068Z,53.00
2023-03-26T19:33:17.751Z,52.80
2023-03-26T19:35:51.922Z,52.70
2023-03-26T19:38:26.422Z,52.50
2023-03-26T19:40:57.032Z,52.50
2023-03-26T19:43:28.323Z,52.70
2023-03-26T19:46:00.210Z,52.70
2023-03-26T19:48:46.046Z,53.00
2023-03-26T19:51:32.926Z,53.40
2023-03-26T19:54:03.342Z,53.70
2023-03-26T19:56:31.880Z,53.80
2023-03-26T19:58:59.542Z,54.00
2023-03-26T20:01:30.308Z,54.10
2023-03-26T20:04:02.051Z,54.20
2023-03-26T20:06:41.884Z,54.20
2023-03-26T20:09:13.010Z,54.20
2023-03-26T20:11:41.030Z,53.90
2023-03-26T20:14:14.546Z,53.60
2023-03-26T20:16:44.476Z,53.50
2023-03-26T20:19:14.564Z,53.20
2023-03-26T20:21:43.617Z,52.90
2023-03-26T20:24:16.909Z,52.60
2023-03-26T20:26:46.016Z,51.90
2023-03-26T20:29:14.212Z,51.90
2023-03-26T20:31:42.291Z,51.50
2023-03-26T20:34:24.035Z,51.20
2023-03-26T20:37:01.315Z,51.10
2023-03-26T20:39:29.097Z,51.00
2023-03-26T20:41:59.592Z,50.80
2023-03-26T20:44:27.415Z,50.50
2023-03-26T20:46:56.679Z,50.20
2023-03-26T20:49:25.256Z,49.90
2023-03-26T20:51:52.948Z,49.60
2023-03-26T20:54:23.479Z,49.20
2023-03-26T20:56:52.610Z,48.80
2023-03-26T20:59:26.914Z,48.90
2023-03-26T21:01:57.007Z,48.90
2023-03-26T21:04:26.446Z,49.10
2023-03-26T21:07:00.289Z,49.30
2023-03-26T21:09:35.486Z,49.50
2023-03-26T21:12:07.757Z,49.80
2023-03-26T21:14:44.007Z,49.90
2023-03-26T21:17:22.453Z,49.90
2023-03-26T21:19:50.846Z,50.10
2023-03-26T21:22:32.724Z,50.60
2023-03-26T21:25:24.474Z,50.80
2023-03-26T21:28:39.770Z,51.20
2023-03-26T21:31:15.951Z,51.70
2023-03-26T21:33:43.438Z,52.30
2023-03-26T21:36:12.172Z,52.60
2023-03-26T21:38:40.108Z,52.70
2023-03-26T21:41:07.922Z,52.90
2023-03-26T21:43:35.588Z,53.00
2023-03-26T21:46:03.898Z,53.30
2023-03-26T21:48:31.535Z,53.40
2023-03-26T21:51:02.585Z,53.40
2023-03-26T21:53:30.474Z,53.50
2023-03-26T21:56:13.639Z,53.40
2023-03-26T21:59:13.860Z,53.40
2023-03-26T22:01:56.815Z,53.20
2023-03-26T22:04:46.564Z,53.20
2023-03-26T22:07:16.010Z,53.30
2023-03-26T22:09:45.113Z,53.40
2023-03-26T22:12:12.758Z,53.20
2023-03-26T22:14:40.744Z,53.40
2023-03-26T22:17:08.295Z,53.40
2023-03-26T22:19:36.294Z,53.20
2023-03-26T22:22:06.720Z,52.80
2023-03-26T22:24:34.492Z,52.60
2023-03-26T22:27:02.140Z,52.60
2023-03-26T22:29:29.494Z,52.40
2023-03-26T22:31:56.836Z,52.20
2023-03-26T22:34:24.741Z,51.70
2023-03-26T22:36:53.646Z,51.40
2023-03-26T22:39:21.907Z,51.10
2023-03-26T22:41:49.283Z,51.00
2023-03-26T22:44:20.460Z,51.40
2023-03-26T22:46:51.841Z,51.60
2023-03-26T22:49:19.300Z,50.80
2023-03-26T22:51:47.105Z,50.20
2023-03-26T22:54:14.744Z,49.90
2023-03-26T22:56:42.117Z,49.50
2023-03-26T22:59:09.587Z,49.10
2023-03-26T23:01:37.435Z,48.90
2023-03-26T23:04:06.181Z,49.00
2023-03-26T23:06:34.685Z,49.00
2023-03-26T23:09:02.076Z,49.10
2023-03-26T23:11:30.776Z,49.10
2023-03-26T23:13:58.156Z,49.20
2023-03-26T23:16:28.729Z,49.50
2023-03-26T23:18:56.274Z,49.70
2023-03-26T23:21:23.934Z,49.80
2023-03-26T23:23:54.256Z,50.00
2023-03-26T23:26:22.253Z,50.00
2023-03-26T23:28:51.273Z,49.80
2023-03-26T23:31:18.968Z,49.90
2023-03-26T23:33:52.084Z,50.20
2023-03-26T23:36:26.819Z,50.50
2023-03-26T23:38:54.183Z,50.60
2023-03-26T23:41:23.039Z,50.50
2023-03-26T23:43:53.513Z,50.30
2023-03-26T23:46:24.757Z,50.00
2023-03-26T23:48:52.996Z,49.80
2023-03-26T23:51:21.646Z,49.50
2023-03-26T23:53:49.931Z,49.40
2023-03-26T23:56:17.907Z,49.40
2023-03-26T23:58:45.279Z,49.50
